Time;durP1;ratioP1;P1;durP2;ratioP2;P2;SDS_P1;SDS_P2;PMS_P1;PMS_P2;Temp;Humidity;BMP_temperature;BMP_pressure;BME280_temperature;BME280_humidity;BME280_pressure;Samples;Min_cycle;Max_cycle;Signal;HPM_P1;HPM_P2
2021/09/18 00:01:48;;;;;;;1.92;1.30;;;18.80;99.90;;;;;;5091751;28;20055;-81
2021/09/18 00:04:13;;;;;;;2.78;1.00;;;18.80;99.90;;;;;;5091696;28;20055;-79
2021/09/18 00:06:39;;;;;;;5.78;1.13;;;18.70;99.90;;;;;;5091937;28;20504;-77
2021/09/18 00:09:05;;;;;;;4.78;1.55;;;18.70;99.90;;;;;;5091283;28;20035;-79
2021/09/18 00:11:31;;;;;;;5.53;1.27;;;18.70;99.90;;;;;;5091658;28;20427;-80
2021/09/18 00:13:57;;;;;;;8.63;1.92;;;18.70;99.90;;;;;;5091961;28;20469;-80
2021/09/18 00:16:23;;;;;;;9.15;1.67;;;18.70;99.90;;;;;;5091556;28;20028;-82
2021/09/18 00:18:52;;;;;;;4.55;1.27;;;18.70;99.90;;;;;;5091629;28;20019;-80
2021/09/18 00:21:17;;;;;;;1.38;1.13;;;18.70;99.90;;;;;;5091456;28;20024;-81
2021/09/18 00:23:43;;;;;;;5.28;2.15;;;18.70;99.90;;;;;;5090967;28;20635;-75
2021/09/18 00:26:09;;;;;;;7.03;1.48;;;18.70;99.90;;;;;;5091206;28;20486;-82
2021/09/18 00:28:35;;;;;;;4.43;1.48;;;18.70;99.90;;;;;;5092293;28;20016;-80
2021/09/18 00:31:01;;;;;;;1.77;1.38;;;18.60;99.90;;;;;;5092612;28;20398;-75
2021/09/18 00:33:26;;;;;;;3.17;1.50;;;18.60;99.90;;;;;;5092541;28;20028;-81
2021/09/18 00:35:52;;;;;;;1.50;1.38;;;18.60;99.90;;;;;;5092425;28;20020;-81
2021/09/18 00:38:18;;;;;;;1.70;1.50;;;18.60;99.90;;;;;;5096249;28;20028;-81
2021/09/18 00:40:43;;;;;;;8.02;1.33;;;18.50;99.90;;;;;;5095835;28;20016;-81
2021/09/18 00:43:11;;;;;;;4.57;1.17;;;18.50;99.90;;;;;;5096036;28;20173;-81
2021/09/18 00:45:36;;;;;;;5.30;1.38;;;18.50;99.90;;;;;;5095869;28;20543;-80
2021/09/18 00:48:03;;;;;;;1.33;1.20;;;18.50;99.90;;;;;;5095678;28;20114;-83
2021/09/18 00:50:29;;;;;;;2.85;1.38;;;18.50;99.90;;;;;;5095858;28;20028;-79
2021/09/18 00:52:54;;;;;;;3.38;1.20;;;18.50;99.90;;;;;;5095689;28;20081;-81
2021/09/18 00:55:20;;;;;;;1.60;1.20;;;18.50;99.90;;;;;;5095934;28;20065;-81
2021/09/18 00:57:46;;;;;;;2.40;1.13;;;18.50;99.90;;;;;;5095608;28;20470;-79
2021/09/18 01:00:16;;;;;;;2.55;1.73;;;18.50;99.90;;;;;;5095632;28;20385;-79
2021/09/18 01:02:41;;;;;;;4.35;1.52;;;18.50;99.90;;;;;;5095557;28;20473;-77
2021/09/18 01:05:08;;;;;;;4.18;1.33;;;18.50;99.90;;;;;;5095693;28;20024;-80
2021/09/18 01:07:38;;;;;;;4.10;1.30;;;18.50;99.90;;;;;;5095727;28;20099;-80
2021/09/18 01:10:06;;;;;;;4.97;1.58;;;18.50;99.90;;;;;;5095796;28;20482;-75
2021/09/18 01:12:31;;;;;;;1.75;1.17;;;18.50;99.90;;;;;;5095260;28;20044;-74
2021/09/18 01:14:57;;;;;;;1.88;1.20;;;18.40;99.90;;;;;;5095562;28;20489;-73
2021/09/18 01:17:23;;;;;;;3.78;1.58;;;18.40;99.90;;;;;;5095418;28;20027;-74
2021/09/18 01:19:48;;;;;;;1.45;1.20;;;18.40;99.90;;;;;;5095113;28;20021;-73
2021/09/18 01:22:23;;;;;;;6.97;1.33;;;18.40;99.90;;;;;;5095283;28;20114;-74
2021/09/18 01:24:48;;;;;;;6.82;1.70;;;18.40;99.90;;;;;;5095162;28;20017;-74
2021/09/18 01:27:14;;;;;;;1.55;1.45;;;18.40;99.90;;;;;;5095302;28;20181;-75
2021/09/18 01:29:40;;;;;;;1.23;1.13;;;18.40;99.90;;;;;;5095122;28;20526;-74
2021/09/18 01:32:06;;;;;;;1.27;1.17;;;18.40;99.90;;;;;;5095235;28;20032;-74
2021/09/18 01:34:31;;;;;;;3.50;1.45;;;18.40;99.90;;;;;;5094815;28;20028;-74
2021/09/18 01:36:57;;;;;;;8.18;1.10;;;18.30;99.90;;;;;;5094992;28;20041;-74
2021/09/18 01:39:27;;;;;;;5.88;1.35;;;18.30;99.90;;;;;;5094956;28;20020;-74
2021/09/18 01:41:52;;;;;;;1.38;1.27;;;18.30;99.90;;;;;;5094079;28;20020;-73
2021/09/18 01:44:19;;;;;;;1.98;1.35;;;18.30;99.90;;;;;;5094223;28;20012;-76
2021/09/18 01:46:45;;;;;;;10.95;1.67;;;18.30;99.90;;;;;;5093522;28;20052;-75
2021/09/18 01:49:15;;;;;;;2.78;1.27;;;18.30;99.90;;;;;;5093974;28;20386;-74
2021/09/18 01:51:43;;;;;;;4.07;1.35;;;18.30;99.90;;;;;;5093824;28;20526;-74
2021/09/18 01:54:10;;;;;;;5.13;1.60;;;18.30;99.90;;;;;;5093840;28;20079;-74
2021/09/18 01:56:35;;;;;;;1.33;1.23;;;18.30;99.90;;;;;;5093675;28;20027;-74
2021/09/18 01:59:01;;;;;;;1.60;1.20;;;18.30;99.90;;;;;;5093809;28;20539;-74
2021/09/18 02:01:27;;;;;;;1.77;1.30;;;18.30;99.90;;;;;;5093708;28;20035;-73
2021/09/18 02:03:52;;;;;;;3.60;1.50;;;18.40;99.90;;;;;;5093962;28;20034;-76
2021/09/18 02:06:18;;;;;;;1.42;1.10;;;18.40;99.90;;;;;;5093496;28;20020;-74
2021/09/18 02:08:44;;;;;;;3.85;1.60;;;18.30;99.90;;;;;;5093500;28;20024;-73
2021/09/18 02:11:10;;;;;;;2.25;1.40;;;18.40;99.90;;;;;;5093388;28;20036;-74
2021/09/18 02:13:35;;;;;;;1.23;1.10;;;18.30;99.90;;;;;;5093666;28;20020;-85
2021/09/18 02:16:01;;;;;;;1.75;1.45;;;18.30;99.90;;;;;;5075513;28;20389;-74
2021/09/18 02:18:26;;;;;;;3.33;1.50;;;18.20;99.90;;;;;;5093576;28;20023;-73
2021/09/18 02:20:52;;;;;;;2.00;1.65;;;18.20;99.90;;;;;;5093465;28;20466;-73
2021/09/18 02:23:18;;;;;;;2.28;1.48;;;18.10;99.90;;;;;;5093581;28;20486;-74
2021/09/18 02:25:44;;;;;;;3.33;1.63;;;18.00;99.90;;;;;;5093292;28;20031;-73
2021/09/18 02:28:10;;;;;;;1.83;1.63;;;18.00;99.90;;;;;;5093527;28;20378;-73
2021/09/18 02:30:37;;;;;;;4.00;1.42;;;18.00;99.90;;;;;;5092921;28;20028;-74
2021/09/18 02:33:04;;;;;;;4.53;1.10;;;18.00;99.90;;;;;;5093156;28;20028;-74
2021/09/18 02:35:32;;;;;;;2.80;1.45;;;17.90;99.90;;;;;;5093353;28;20390;-74
2021/09/18 02:37:59;;;;;;;5.55;1.40;;;17.90;99.90;;;;;;5093130;28;20020;-74
2021/09/18 02:40:26;;;;;;;4.93;1.50;;;17.90;99.90;;;;;;5093043;28;20645;-74
2021/09/18 02:42:55;;;;;;;5.47;1.50;;;17.90;99.90;;;;;;5092780;28;20032;-73
2021/09/18 02:45:22;;;;;;;2.88;1.55;;;17.80;99.90;;;;;;5093022;28;20039;-73
2021/09/18 02:47:48;;;;;;;1.75;1.40;;;17.80;99.90;;;;;;5074672;28;20020;-74
2021/09/18 02:50:17;;;;;;;2.20;1.25;;;17.80;99.90;;;;;;5092904;28;20027;-75
2021/09/18 02:52:42;;;;;;;1.55;1.40;;;17.80;99.90;;;;;;5092572;28;20079;-73
2021/09/18 02:55:09;;;;;;;6.47;1.52;;;17.80;99.90;;;;;;5092786;28;20062;-74
2021/09/18 02:57:35;;;;;;;5.93;1.70;;;17.80;99.90;;;;;;5092861;28;20028;-74
2021/09/18 03:00:02;;;;;;;1.20;1.10;;;17.80;99.90;;;;;;5091913;28;20028;-71
2021/09/18 03:02:27;;;;;;;8.20;1.45;;;17.80;99.90;;;;;;5092548;28;20049;-74
2021/09/18 03:04:53;;;;;;;7.65;1.75;;;17.80;99.90;;;;;;5092530;28;20495;-73
2021/09/18 03:07:18;;;;;;;2.10;1.80;;;17.80;99.90;;;;;;5092618;28;20537;-72
2021/09/18 03:09:44;;;;;;;8.65;1.85;;;17.80;99.90;;;;;;5092454;28;20131;-72
2021/09/18 03:12:10;;;;;;;1.73;1.63;;;17.80;99.90;;;;;;5092398;28;20035;-72
2021/09/18 03:14:35;;;;;;;3.33;1.30;;;17.80;99.90;;;;;;5074416;28;20027;-72
2021/09/18 03:17:01;;;;;;;2.75;1.65;;;17.80;99.90;;;;;;5092392;28;20028;-75
2021/09/18 03:19:27;;;;;;;2.70;1.70;;;17.80;99.90;;;;;;5092477;28;20021;-72
2021/09/18 03:21:52;;;;;;;3.17;1.40;;;17.80;99.90;;;;;;5092439;28;20024;-72
2021/09/18 03:24:18;;;;;;;1.80;1.50;;;17.80;99.90;;;;;;5092155;28;20028;-71
2021/09/18 03:26:44;;;;;;;2.33;1.80;;;17.80;99.90;;;;;;5092427;28;20074;-74
2021/09/18 03:29:11;;;;;;;4.70;1.60;;;17.70;99.90;;;;;;5092198;28;20501;-72
2021/09/18 03:31:37;;;;;;;2.92;1.65;;;17.70;99.90;;;;;;5074679;28;20440;-72
2021/09/18 03:34:03;;;;;;;2.60;1.42;;;17.70;99.90;;;;;;5092998;28;20020;-73
2021/09/18 03:36:29;;;;;;;2.08;1.58;;;17.70;99.90;;;;;;5093175;28;20114;-72
2021/09/18 03:38:55;;;;;;;2.45;1.52;;;17.70;99.90;;;;;;5092926;28;20016;-73
2021/09/18 03:41:20;;;;;;;1.92;1.30;;;17.70;99.90;;;;;;5093100;28;20056;-74
2021/09/18 03:43:47;;;;;;;1.90;1.48;;;17.70;99.90;;;;;;5092789;28;20028;-72
2021/09/18 03:46:13;;;;;;;2.08;1.30;;;17.70;99.90;;;;;;5093108;28;20028;-73
2021/09/18 03:48:39;;;;;;;3.92;1.92;;;17.70;99.90;;;;;;5092924;28;20045;-73
2021/09/18 03:51:05;;;;;;;3.63;1.75;;;17.80;99.90;;;;;;5092935;28;20036;-73
2021/09/18 03:53:34;;;;;;;3.22;2.15;;;17.70;99.90;;;;;;5092849;28;20024;-73
2021/09/18 03:56:00;;;;;;;2.03;1.52;;;17.70;99.90;;;;;;5092961;28;20502;-73
2021/09/18 03:58:26;;;;;;;3.05;1.67;;;17.70;99.90;;;;;;5092851;28;20132;-74
2021/09/18 04:00:52;;;;;;;7.63;1.88;;;17.80;99.90;;;;;;5092755;28;20024;-73
2021/09/18 04:03:17;;;;;;;2.42;1.70;;;17.80;99.90;;;;;;5092823;28;20382;-73
2021/09/18 04:05:43;;;;;;;1.90;1.27;;;17.80;99.90;;;;;;5092691;28;20107;-72
2021/09/18 04:08:09;;;;;;;5.25;1.92;;;17.80;99.90;;;;;;5093063;28;20531;-72
2021/09/18 04:10:36;;;;;;;1.77;1.60;;;17.80;99.90;;;;;;5094018;28;20101;-73
2021/09/18 04:13:03;;;;;;;2.00;1.80;;;17.80;99.90;;;;;;5096979;28;20032;-72
2021/09/18 04:15:29;;;;;;;3.10;1.80;;;17.80;99.90;;;;;;5096796;28;20466;-76
2021/09/18 04:17:55;;;;;;;3.65;1.70;;;17.90;99.90;;;;;;5096706;28;20031;-72
2021/09/18 04:20:21;;;;;;;2.88;1.80;;;17.90;99.90;;;;;;5096542;28;20106;-72
2021/09/18 04:22:46;;;;;;;5.88;1.60;;;18.00;99.90;;;;;;5096928;28;20458;-72
2021/09/18 04:25:12;;;;;;;4.43;1.45;;;18.00;99.90;;;;;;5096395;28;20052;-73
2021/09/18 04:27:38;;;;;;;2.08;1.73;;;18.00;99.90;;;;;;5096752;28;20433;-72
2021/09/18 04:30:05;;;;;;;2.83;1.58;;;18.00;99.90;;;;;;5096254;28;20055;-72
2021/09/18 04:32:31;;;;;;;2.72;1.88;;;18.00;99.90;;;;;;5096324;28;20036;-72
2021/09/18 04:34:56;;;;;;;3.13;1.77;;;18.00;99.90;;;;;;5096489;28;20124;-72
2021/09/18 04:37:23;;;;;;;2.20;1.50;;;18.00;99.90;;;;;;5096302;28;20118;-73
2021/09/18 04:39:48;;;;;;;4.45;1.50;;;18.00;99.90;;;;;;5096193;28;20020;-76
2021/09/18 04:42:14;;;;;;;5.20;1.75;;;18.00;99.90;;;;;;5096229;28;20576;-72
2021/09/18 04:44:40;;;;;;;4.53;2.00;;;18.00;99.90;;;;;;5095746;28;20036;-72
2021/09/18 04:47:05;;;;;;;1.67;1.48;;;18.00;99.90;;;;;;5096303;28;20024;-72
2021/09/18 04:49:31;;;;;;;4.60;1.75;;;18.00;99.90;;;;;;5096141;28;20032;-72
2021/09/18 04:51:57;;;;;;;5.40;1.80;;;18.10;99.90;;;;;;5096109;28;20032;-78
2021/09/18 04:54:23;;;;;;;2.08;1.73;;;18.00;99.90;;;;;;5096144;28;20429;-72
2021/09/18 04:56:49;;;;;;;1.60;1.50;;;18.10;99.90;;;;;;5095788;28;20104;-73
2021/09/18 04:59:14;;;;;;;1.92;1.50;;;18.00;99.90;;;;;;5096205;28;20103;-74
2021/09/18 05:01:40;;;;;;;2.50;1.98;;;18.00;99.90;;;;;;5096307;28;20075;-72
2021/09/18 05:04:06;;;;;;;4.78;1.55;;;18.00;99.90;;;;;;5096035;28;20108;-72
2021/09/18 05:06:31;;;;;;;5.53;1.67;;;18.00;99.90;;;;;;5095754;28;20063;-71
2021/09/18 05:08:57;;;;;;;2.25;1.63;;;18.00;99.90;;;;;;5095596;28;20085;-72
2021/09/18 05:11:23;;;;;;;3.22;1.73;;;18.00;99.90;;;;;;5095234;28;20052;-72
2021/09/18 05:13:48;;;;;;;1.80;1.70;;;17.90;99.90;;;;;;5095070;28;20044;-72
2021/09/18 05:16:14;;;;;;;1.70;1.60;;;17.90;99.90;;;;;;5095690;28;20492;-73
2021/09/18 05:18:39;;;;;;;1.95;1.67;;;18.00;99.90;;;;;;5095648;28;20024;-80
2021/09/18 05:21:05;;;;;;;3.38;1.92;;;18.00;99.90;;;;;;5095653;28;20047;-73
2021/09/18 05:23:31;;;;;;;2.72;1.67;;;18.00;99.90;;;;;;5094423;28;20024;-72
2021/09/18 05:25:56;;;;;;;2.10;1.58;;;18.00;99.90;;;;;;5095452;28;20032;-73
2021/09/18 05:28:22;;;;;;;4.82;1.58;;;18.10;99.90;;;;;;5095380;28;20523;-73
2021/09/18 05:30:48;;;;;;;2.03;1.77;;;18.10;99.90;;;;;;5095155;28;20386;-73
2021/09/18 05:33:14;;;;;;;3.42;1.70;;;18.10;99.90;;;;;;5095448;28;20024;-73
2021/09/18 05:35:39;;;;;;;2.22;1.70;;;18.20;99.90;;;;;;5095067;28;20032;-72
2021/09/18 05:38:05;;;;;;;2.72;1.77;;;18.20;99.90;;;;;;5076901;28;20021;-73
2021/09/18 05:40:31;;;;;;;2.22;1.70;;;18.20;99.90;;;;;;5094432;28;20031;-75
2021/09/18 05:42:56;;;;;;;1.80;1.70;;;18.20;99.90;;;;;;5094027;28;20024;-72
2021/09/18 05:45:22;;;;;;;1.80;1.70;;;18.20;99.90;;;;;;5094174;28;20107;-77
2021/09/18 05:47:48;;;;;;;2.53;2.03;;;18.30;99.90;;;;;;5094052;28;20031;-73
2021/09/18 05:50:14;;;;;;;9.23;1.65;;;18.30;99.90;;;;;;5093889;28;20087;-73
2021/09/18 05:52:39;;;;;;;2.78;1.40;;;18.30;99.90;;;;;;5093768;28;20035;-74
2021/09/18 05:55:06;;;;;;;2.03;1.83;;;18.30;99.90;;;;;;5093751;28;20017;-74
2021/09/18 05:57:31;;;;;;;5.75;1.98;;;18.30;99.90;;;;;;5093541;28;20482;-73
2021/09/18 05:59:57;;;;;;;7.10;1.92;;;18.40;99.90;;;;;;5093602;28;20020;-72
2021/09/18 06:02:23;;;;;;;2.83;2.10;;;18.40;99.90;;;;;;5093524;28;20035;-72
2021/09/18 06:04:49;;;;;;;4.80;1.55;;;18.40;99.90;;;;;;5075289;28;20118;-72
2021/09/18 06:07:16;;;;;;;2.60;1.80;;;18.50;99.90;;;;;;5075094;28;20535;-71
2021/09/18 06:09:41;;;;;;;5.22;1.90;;;18.60;99.90;;;;;;5093410;28;20454;-72
2021/09/18 06:12:07;;;;;;;1.73;1.50;;;18.60;99.90;;;;;;5093317;28;20032;-82
2021/09/18 06:14:33;;;;;;;5.30;1.80;;;18.60;99.90;;;;;;5075483;28;20028;-72
2021/09/18 06:16:58;;;;;;;4.20;1.90;;;18.60;99.90;;;;;;5093213;28;20351;-72
2021/09/18 06:19:24;;;;;;;5.63;1.60;;;18.60;99.90;;;;;;5093341;28;20024;-72
2021/09/18 06:21:50;;;;;;;6.72;1.60;;;18.60;99.90;;;;;;5093251;28;20028;-74
2021/09/18 06:24:15;;;;;;;2.75;1.40;;;18.70;99.90;;;;;;5093087;28;20073;-73
2021/09/18 06:26:42;;;;;;;1.88;1.40;;;18.70;99.90;;;;;;5093367;28;20032;-72
2021/09/18 06:29:08;;;;;;;4.72;1.50;;;18.70;99.90;;;;;;5093220;28;20125;-72
2021/09/18 06:31:34;;;;;;;3.72;2.03;;;18.80;99.90;;;;;;5092803;28;20482;-72
2021/09/18 06:34:00;;;;;;;2.20;1.60;;;18.80;99.90;;;;;;5093034;28;20432;-78
2021/09/18 06:36:26;;;;;;;2.30;1.48;;;18.90;99.90;;;;;;5092946;28;20031;-78
2021/09/18 06:38:51;;;;;;;4.78;1.80;;;19.00;99.90;;;;;;5093190;28;20431;-78
2021/09/18 06:41:17;;;;;;;2.17;1.67;;;19.10;99.90;;;;;;5092829;28;20470;-72
2021/09/18 06:43:43;;;;;;;3.47;1.75;;;19.10;99.90;;;;;;5092654;28;20386;-72
2021/09/18 06:46:08;;;;;;;2.70;1.70;;;19.20;99.90;;;;;;5092763;28;20028;-73
2021/09/18 06:48:34;;;;;;;5.82;1.60;;;19.30;99.90;;;;;;5092707;28;20028;-73
2021/09/18 06:51:00;;;;;;;12.25;1.70;;;19.40;99.90;;;;;;5092520;28;20038;-72
2021/09/18 06:53:26;;;;;;;2.13;1.88;;;19.50;99.90;;;;;;5092653;28;20031;-73
2021/09/18 06:55:51;;;;;;;2.95;1.92;;;19.50;99.90;;;;;;5092592;28;20024;-73
2021/09/18 06:58:18;;;;;;;3.47;1.55;;;19.60;99.90;;;;;;5092526;28;20027;-72
2021/09/18 07:00:43;;;;;;;2.55;1.52;;;19.70;99.90;;;;;;5092723;28;20383;-73
2021/09/18 07:03:09;;;;;;;1.60;1.50;;;19.80;99.90;;;;;;5074554;28;20024;-73
2021/09/18 07:05:35;;;;;;;1.60;1.50;;;20.00;99.90;;;;;;5074200;28;20027;-73
2021/09/18 07:08:01;;;;;;;1.83;1.65;;;20.20;99.90;;;;;;5092626;28;20029;-73
2021/09/18 07:10:27;;;;;;;3.42;1.60;;;20.40;99.90;;;;;;5092290;28;20104;-72
2021/09/18 07:12:52;;;;;;;5.05;2.00;;;20.70;99.90;;;;;;5092432;28;20367;-73
2021/09/18 07:15:20;;;;;;;3.17;1.40;;;20.90;99.90;;;;;;5092546;28;20047;-76
2021/09/18 07:17:45;;;;;;;1.45;1.35;;;21.10;99.90;;;;;;5092405;28;20028;-77
2021/09/18 07:20:12;;;;;;;3.28;1.60;;;21.20;99.90;;;;;;5092001;28;20050;-73
2021/09/18 07:22:38;;;;;;;2.58;1.60;;;21.30;99.90;;;;;;5092487;28;20077;-74
2021/09/18 07:25:05;;;;;;;2.50;1.30;;;21.40;99.90;;;;;;5093098;28;20085;-86
2021/09/18 07:27:31;;;;;;;5.07;2.17;;;21.40;99.90;;;;;;5093458;28;20028;-78
2021/09/18 07:29:57;;;;;;;8.18;1.88;;;21.50;99.90;;;;;;5093844;28;20557;-72
2021/09/18 07:32:24;;;;;;;2.33;1.42;;;21.50;99.90;;;;;;5092901;28;20485;-73
2021/09/18 07:34:49;;;;;;;2.80;1.75;;;21.60;99.90;;;;;;5093225;28;20031;-72
2021/09/18 07:37:17;;;;;;;1.52;1.42;;;21.70;99.90;;;;;;5093257;28;20462;-73
2021/09/18 07:39:43;;;;;;;1.88;1.27;;;22.00;99.90;;;;;;5092936;28;20071;-73
2021/09/18 07:42:10;;;;;;;1.55;1.20;;;22.80;99.90;;;;;;5093361;28;20456;-74
2021/09/18 07:44:36;;;;;;;2.63;1.25;;;23.60;99.90;;;;;;5093245;28;20523;-72
2021/09/18 07:47:03;;;;;;;3.60;1.20;;;24.40;99.90;;;;;;5097417;28;20056;-73
2021/09/18 07:49:28;;;;;;;2.67;1.20;;;26.10;99.90;;;;;;5096992;28;20023;-76
2021/09/18 07:51:55;;;;;;;3.30;1.20;;;26.70;99.90;;;;;;5097004;28;20389;-72
2021/09/18 07:54:21;;;;;;;1.50;0.95;;;26.60;99.90;;;;;;5096961;28;20020;-72
2021/09/18 07:56:47;;;;;;;6.68;1.02;;;27.10;99.90;;;;;;5078643;28;20024;-73
2021/09/18 07:59:13;;;;;;;1.50;1.08;;;27.00;99.90;;;;;;5097010;28;20462;-73
2021/09/18 08:01:38;;;;;;;1.70;1.13;;;26.70;99.90;;;;;;5096908;28;20020;-72
2021/09/18 08:04:04;;;;;;;4.15;1.42;;;26.00;99.90;;;;;;5096827;28;20030;-73
2021/09/18 08:06:35;;;;;;;2.95;1.13;;;26.20;99.90;;;;;;5096998;28;20466;-74
2021/09/18 08:09:03;;;;;;;3.58;1.10;;;27.10;99.90;;;;;;5096699;28;20051;-71
2021/09/18 08:11:29;;;;;;;1.73;0.98;;;28.20;99.50;;;;;;5078715;28;20040;-81
2021/09/18 08:13:57;;;;;;;1.23;1.05;;;29.30;97.70;;;;;;5096800;28;20028;-73
2021/09/18 08:16:23;;;;;;;1.35;0.95;;;30.30;96.00;;;;;;5097068;28;20454;-72
2021/09/18 08:18:50;;;;;;;3.17;0.88;;;30.60;94.90;;;;;;5096417;28;20028;-75
2021/09/18 08:21:16;;;;;;;2.33;0.95;;;31.00;93.70;;;;;;5096580;28;20485;-73
2021/09/18 08:23:42;;;;;;;4.90;0.80;;;31.70;93.20;;;;;;5096738;28;20039;-73
2021/09/18 08:26:09;;;;;;;3.10;0.80;;;32.40;91.90;;;;;;5096295;28;20047;-72
2021/09/18 08:28:36;;;;;;;1.98;0.82;;;32.90;90.70;;;;;;5096578;28;20077;-72
2021/09/18 08:31:01;;;;;;;2.78;0.80;;;32.50;89.70;;;;;;5096688;28;20036;-77
2021/09/18 08:33:27;;;;;;;12.57;0.85;;;31.60;90.60;;;;;;5096386;28;20485;-73
2021/09/18 08:35:53;;;;;;;4.78;0.77;;;31.50;90.30;;;;;;5096467;28;20114;-72
2021/09/18 08:38:20;;;;;;;0.77;0.77;;;31.00;90.50;;;;;;5078350;28;20020;-72
2021/09/18 08:40:48;;;;;;;1.90;0.95;;;30.70;90.70;;;;;;5096898;28;20092;-73
2021/09/18 08:43:14;;;;;;;8.23;1.00;;;30.30;91.50;;;;;;5096473;28;20020;-73
2021/09/18 08:45:40;;;;;;;4.35;1.02;;;29.80;92.20;;;;;;5096574;28;20519;-73
2021/09/18 08:48:06;;;;;;;1.08;0.93;;;29.20;92.90;;;;;;5096437;28;20025;-73
2021/09/18 08:50:35;;;;;;;1.58;1.48;;;28.40;93.20;;;;;;5096743;28;20389;-78
2021/09/18 08:53:01;;;;;;;1.33;1.02;;;27.80;94.50;;;;;;5097782;28;20036;-73
2021/09/18 08:55:27;;;;;;;1.30;0.90;;;27.20;94.70;;;;;;5096438;28;20494;-77
2021/09/18 08:57:53;;;;;;;1.63;1.35;;;26.80;95.50;;;;;;5095274;28;20092;-75
2021/09/18 09:00:43;;;;;;;1.50;1.40;;;26.50;95.70;;;;;;5095985;28;20024;-73
2021/09/18 09:03:09;;;;;;;2.40;1.13;;;26.30;95.80;;;;;;5085289;28;20038;-72
2021/09/18 09:05:38;;;;;;;7.18;1.20;;;26.10;96.70;;;;;;5095778;28;20020;-72
2021/09/18 09:08:18;;;;;;;2.70;1.20;;;26.10;96.80;;;;;;5095924;28;20028;-74
2021/09/18 09:10:46;;;;;;;2.60;1.40;;;26.10;97.10;;;;;;5095324;28;20044;-73
2021/09/18 09:13:21;;;;;;;3.92;1.52;;;26.10;97.20;;;;;;5095840;28;20478;-72
2021/09/18 09:15:50;;;;;;;2.10;1.30;;;26.10;97.00;;;;;;5095191;28;20024;-72
2021/09/18 09:18:26;;;;;;;1.65;1.42;;;25.90;97.10;;;;;;5077399;28;20023;-72
2021/09/18 09:21:16;;;;;;;2.60;1.08;;;26.00;98.20;;;;;;5095490;28;20028;-73
2021/09/18 09:23:43;;;;;;;2.67;1.40;;;26.10;98.20;;;;;;5095299;28;20028;-82
2021/09/18 09:26:10;;;;;;;3.13;1.10;;;26.30;96.90;;;;;;5095280;28;20059;-74
2021/09/18 09:28:38;;;;;;;3.80;1.15;;;26.30;97.40;;;;;;5095379;28;20103;-79
2021/09/18 09:31:29;;;;;;;5.82;1.73;;;26.40;97.70;;;;;;5095495;28;20042;-76
2021/09/18 09:34:18;;;;;;;5.90;1.77;;;26.80;97.20;;;;;;5095274;28;20032;-76
2021/09/18 09:36:51;;;;;;;2.45;1.50;;;26.90;97.30;;;;;;5095072;28;20016;-76
2021/09/18 09:39:22;;;;;;;2.22;1.13;;;26.80;97.30;;;;;;5095384;28;20027;-72
2021/09/18 09:41:56;;;;;;;3.55;1.30;;;26.70;96.30;;;;;;5094382;28;20494;-74
2021/09/18 09:44:26;;;;;;;3.83;1.35;;;26.80;96.90;;;;;;5076424;28;20367;-75
2021/09/18 09:47:04;;;;;;;5.07;1.20;;;27.10;97.60;;;;;;5094528;28;20421;-75
2021/09/18 09:49:44;;;;;;;3.13;1.20;;;27.30;97.40;;;;;;5094823;28;20478;-78
2021/09/18 09:52:21;;;;;;;1.67;1.17;;;27.40;96.90;;;;;;5094507;28;20036;-78
2021/09/18 09:54:47;;;;;;;6.00;1.20;;;27.80;96.90;;;;;;5094282;28;20027;-79
2021/09/18 09:57:14;;;;;;;6.03;1.63;;;28.00;97.90;;;;;;5094545;28;20027;-76
2021/09/18 09:59:41;;;;;;;5.65;1.70;;;27.80;98.50;;;;;;5094924;28;20020;-76
2021/09/18 10:02:10;;;;;;;4.30;1.40;;;27.70;98.50;;;;;;5094478;28;20104;-79
2021/09/18 10:04:37;;;;;;;5.18;1.30;;;27.80;99.60;;;;;;5093948;28;20077;-89
2021/09/18 10:07:04;;;;;;;3.25;1.38;;;28.00;98.90;;;;;;5093700;28;20023;-77
2021/09/18 10:09:30;;;;;;;7.75;3.10;;;28.30;99.30;;;;;;5092835;28;20397;-75
2021/09/18 10:11:57;;;;;;;3.25;1.75;;;28.70;99.00;;;;;;5093541;28;20105;-76
2021/09/18 10:14:28;;;;;;;3.95;1.38;;;29.00;98.40;;;;;;5094049;28;20103;-80
2021/09/18 10:16:56;;;;;;;6.78;1.85;;;29.20;98.30;;;;;;5094271;28;20024;-76
2021/09/18 10:25:21;;;;;;;3.30;1.80;;;29.30;98.50;;;;;;5094477;28;20035;-83
2021/09/18 10:28:09;;;;;;;2.80;1.40;;;29.50;98.00;;;;;;5094108;28;20107;-75
2021/09/18 10:30:42;;;;;;;2.53;1.25;;;29.60;97.50;;;;;;5094242;28;20024;-75
2021/09/18 10:33:29;;;;;;;9.43;2.65;;;29.40;98.00;;;;;;5093823;28;20096;-76
2021/09/18 10:35:58;;;;;;;3.47;1.95;;;29.50;99.60;;;;;;5094046;28;20115;-75
2021/09/18 10:38:27;;;;;;;10.05;3.10;;;29.60;99.70;;;;;;5094138;28;20435;-75
2021/09/18 10:41:02;;;;;;;10.02;2.42;;;29.60;99.90;;;;;;5093591;28;20028;-79
2021/09/18 10:43:38;;;;;;;8.48;2.10;;;29.60;99.90;;;;;;5093962;28;20478;-76
2021/09/18 10:46:06;;;;;;;17.00;4.65;;;29.50;99.90;;;;;;5093636;28;20038;-83
2021/09/18 10:48:34;;;;;;;15.07;3.97;;;29.40;99.90;;;;;;5093970;28;20016;-74
2021/09/18 10:51:00;;;;;;;12.20;3.28;;;29.60;99.90;;;;;;5093333;28;20028;-75
2021/09/18 10:53:26;;;;;;;5.88;2.15;;;29.60;99.90;;;;;;5093659;28;20031;-75
2021/09/18 10:56:03;;;;;;;4.63;1.88;;;29.60;99.90;;;;;;5093750;28;20020;-74
2021/09/18 10:58:29;;;;;;;5.95;2.45;;;29.60;99.90;;;;;;5093457;28;20095;-76
2021/09/18 11:00:57;;;;;;;5.57;2.35;;;29.60;99.90;;;;;;5093199;28;20059;-75
2021/09/18 11:03:32;;;;;;;4.25;2.22;;;29.50;99.90;;;;;;5093255;28;20470;-75
2021/09/18 11:05:58;;;;;;;7.60;5.53;;;29.60;99.90;;;;;;5093250;28;20031;-76
2021/09/18 11:08:27;;;;;;;7.00;3.35;;;29.80;99.90;;;;;;5093398;28;20024;-77
2021/09/18 11:11:01;;;;;;;8.20;2.42;;;29.80;99.90;;;;;;5092883;28;20040;-78
2021/09/18 11:13:32;;;;;;;5.65;2.67;;;29.70;99.90;;;;;;5093633;28;20478;-77
2021/09/18 11:16:05;;;;;;;3.90;1.73;;;29.60;99.90;;;;;;5093486;28;20107;-76
2021/09/18 11:18:39;;;;;;;2.22;1.65;;;29.40;99.90;;;;;;5093493;28;20032;-78
2021/09/18 11:21:18;;;;;;;5.68;1.70;;;29.50;99.90;;;;;;5092025;28;20055;-77
2021/09/18 11:23:49;;;;;;;5.70;2.35;;;29.50;99.90;;;;;;5093181;28;20055;-78
2021/09/18 11:26:46;;;;;;;4.88;1.60;;;29.60;99.90;;;;;;5093250;28;20032;-77
2021/09/18 11:29:30;;;;;;;5.75;2.10;;;29.70;99.90;;;;;;5093095;28;20028;-77
2021/09/18 11:32:21;;;;;;;6.32;2.28;;;29.60;98.90;;;;;;5075183;28;20394;-76
2021/09/18 11:34:50;;;;;;;11.73;1.60;;;29.60;97.80;;;;;;5093118;28;20117;-77
2021/09/18 11:37:28;;;;;;;11.45;2.65;;;29.20;97.20;;;;;;5092631;28;20478;-78
2021/09/18 11:39:54;;;;;;;6.13;2.88;;;29.10;98.00;;;;;;5093402;28;20024;-77
2021/09/18 11:42:22;;;;;;;5.40;1.88;;;28.90;97.70;;;;;;5093066;28;20027;-76
2021/09/18 11:44:51;;;;;;;11.95;2.55;;;28.90;97.90;;;;;;5091979;28;20081;-77
2021/09/18 11:47:32;;;;;;;7.05;2.55;;;28.80;98.10;;;;;;5092135;28;20044;-77
2021/09/18 11:49:59;;;;;;;7.50;2.13;;;28.50;98.30;;;;;;5092261;28;20016;-76
2021/09/18 11:52:37;;;;;;;10.40;2.22;;;28.40;98.50;;;;;;5091838;28;20068;-78
2021/09/18 11:55:04;;;;;;;6.25;2.05;;;28.20;98.90;;;;;;5091907;28;20020;-73
2021/09/18 11:57:29;;;;;;;2.35;1.33;;;28.00;99.30;;;;;;5091901;28;20031;-76
2021/09/18 11:59:55;;;;;;;3.72;1.23;;;27.80;99.70;;;;;;5091997;28;20390;-74
2021/09/18 12:02:39;;;;;;;7.65;2.40;;;27.40;99.10;;;;;;5091875;28;20028;-74
2021/09/18 12:05:05;;;;;;;3.08;2.30;;;27.10;99.90;;;;;;5091969;28;20024;-74
2021/09/18 12:07:32;;;;;;;4.05;2.35;;;27.10;99.90;;;;;;5091683;28;20039;-83
2021/09/18 12:09:58;;;;;;;4.65;1.88;;;27.10;99.90;;;;;;5091667;28;20048;-76
2021/09/18 12:12:28;;;;;;;6.55;3.78;;;27.00;99.90;;;;;;5091858;28;20089;-77
2021/09/18 12:14:55;;;;;;;11.75;7.70;;;27.00;99.90;;;;;;5091955;28;20019;-77
2021/09/18 12:17:21;;;;;;;14.63;9.18;;;26.90;99.90;;;;;;5091977;28;20109;-75
2021/09/18 12:19:47;;;;;;;14.82;6.05;;;26.80;99.90;;;;;;5073925;28;20028;-77
2021/09/18 12:22:14;;;;;;;7.40;3.85;;;26.70;99.90;;;;;;5091686;28;20103;-76
2021/09/18 12:24:46;;;;;;;6.00;2.80;;;26.60;99.90;;;;;;5091722;28;20086;-79
2021/09/18 12:27:29;;;;;;;5.65;2.60;;;26.50;99.90;;;;;;5091922;28;20542;-78
2021/09/18 12:30:06;;;;;;;4.85;2.90;;;26.30;99.90;;;;;;5091623;28;20543;-73
2021/09/18 12:32:32;;;;;;;6.40;2.95;;;26.10;99.90;;;;;;5094451;28;20039;-73
2021/09/18 12:35:02;;;;;;;10.77;3.10;;;26.20;99.90;;;;;;5095374;28;20012;-75
2021/09/18 12:37:31;;;;;;;4.37;2.13;;;26.30;99.90;;;;;;5094996;28;20032;-77
2021/09/18 12:40:21;;;;;;;2.88;1.52;;;26.50;99.90;;;;;;5077649;28;20035;-78
2021/09/18 12:43:10;;;;;;;6.03;1.75;;;26.70;99.90;;;;;;5078489;28;20031;-83
2021/09/18 12:45:36;;;;;;;6.38;1.77;;;26.60;99.90;;;;;;5077242;28;20432;-76
2021/09/18 12:48:15;;;;;;;5.53;2.08;;;26.70;99.90;;;;;;5094895;28;20488;-77
2021/09/18 12:50:57;;;;;;;6.00;1.67;;;26.70;99.90;;;;;;5095619;28;20504;-77
2021/09/18 12:53:29;;;;;;;4.32;1.55;;;26.70;99.90;;;;;;5096109;28;20036;-75
2021/09/18 12:56:13;;;;;;;2.53;1.80;;;26.60;99.90;;;;;;5096263;28;20023;-75